createdAt,value
2023-05-15T00:00:43.619Z,17.9793
2023-05-15T00:01:45.340Z,17.9666
2023-05-15T00:02:46.952Z,17.9608
2023-05-15T00:03:49.145Z,17.9694
2023-05-15T00:04:50.233Z,17.9604
2023-05-15T00:05:51.858Z,17.9649
2023-05-15T00:06:53.543Z,17.8844
2023-05-15T00:07:55.133Z,17.7012
2023-05-15T00:08:56.785Z,17.8374
2023-05-15T00:09:59.436Z,17.9074
2023-05-15T00:11:01.956Z,17.9468
2023-05-15T00:12:01.718Z,17.8961
2023-05-15T00:13:03.258Z,17.8659
2023-05-15T00:14:04.915Z,17.8043
2023-05-15T00:15:06.604Z,17.8850
2023-05-15T00:16:08.346Z,17.9497
2023-05-15T00:17:09.882Z,17.9565
2023-05-15T00:18:11.608Z,17.9799
2023-05-15T00:19:13.136Z,17.9592
2023-05-15T00:20:14.825Z,17.9653
2023-05-15T00:21:16.534Z,17.9715
2023-05-15T00:22:18.121Z,17.9965
2023-05-15T00:23:19.773Z,18.0148
2023-05-15T00:24:21.401Z,17.9709
2023-05-15T00:25:23.237Z,17.9937
2023-05-15T00:26:24.680Z,18.0233
2023-05-15T00:27:26.344Z,17.9980
2023-05-15T00:28:27.926Z,17.9653
2023-05-15T00:29:29.584Z,17.9520
2023-05-15T00:30:31.227Z,17.9651
2023-05-15T00:31:33.028Z,17.9629
2023-05-15T00:32:34.557Z,17.9672
2023-05-15T00:33:36.219Z,17.9678
2023-05-15T00:34:37.800Z,17.8998
2023-05-15T00:35:39.478Z,17.8435
2023-05-15T00:36:41.136Z,17.8895
2023-05-15T00:37:42.832Z,17.9078
2023-05-15T00:38:44.400Z,17.9635
2023-05-15T00:39:46.068Z,17.9696
2023-05-15T00:40:47.688Z,17.9713
2023-05-15T00:41:49.390Z,17.9723
2023-05-15T00:42:50.975Z,17.9705
2023-05-15T00:43:52.710Z,17.9694
2023-05-15T00:44:54.280Z,17.9643
2023-05-15T00:45:55.928Z,17.9429
2023-05-15T00:46:57.627Z,17.9154
2023-05-15T00:47:59.310Z,17.9236
2023-05-15T00:49:00.907Z,17.9627
2023-05-15T00:50:02.487Z,17.9608
2023-05-15T00:51:04.214Z,17.9417
2023-05-15T00:52:05.862Z,17.7340
2023-05-15T00:53:07.474Z,17.7893
2023-05-15T00:54:09.142Z,17.9191
2023-05-15T00:55:10.727Z,17.9622
2023-05-15T00:56:12.358Z,17.9688
2023-05-15T00:57:14.065Z,17.9682
2023-05-15T00:58:15.689Z,17.9507
2023-05-15T00:59:17.327Z,17.9362
2023-05-15T01:00:18.980Z,17.9166
2023-05-15T01:01:20.679Z,17.9325
2023-05-15T01:02:22.444Z,17.9191
2023-05-15T01:03:24.040Z,17.9530
2023-05-15T01:04:25.503Z,17.9407
2023-05-15T01:05:27.411Z,17.9760
2023-05-15T01:06:28.832Z,17.9530
2023-05-15T01:07:30.548Z,17.8752
2023-05-15T01:08:32.224Z,17.8230
2023-05-15T01:09:33.785Z,17.9027
2023-05-15T01:10:35.408Z,17.8996
2023-05-15T01:11:37.107Z,17.9608
2023-05-15T01:12:38.925Z,17.9588
2023-05-15T01:13:40.460Z,17.9499
2023-05-15T01:14:42.012Z,17.9569
2023-05-15T01:15:43.665Z,17.9594
2023-05-15T01:16:45.326Z,17.9581
2023-05-15T01:17:47.065Z,17.9758
2023-05-15T01:18:48.666Z,17.9848
2023-05-15T01:19:50.463Z,17.9070
2023-05-15T01:20:51.955Z,17.8741
2023-05-15T01:21:53.560Z,17.9193
2023-05-15T01:22:55.198Z,17.9522
2023-05-15T01:23:56.964Z,17.9692
2023-05-15T01:24:58.459Z,17.9774
2023-05-15T01:26:00.161Z,17.9661
2023-05-15T01:27:01.764Z,17.9614
2023-05-15T01:28:03.485Z,17.9294
2023-05-15T01:29:05.132Z,17.9487
2023-05-15T01:30:06.736Z,17.9622
2023-05-15T01:31:08.363Z,17.9672
2023-05-15T01:32:10.094Z,17.9850
2023-05-15T01:33:11.746Z,17.9877
2023-05-15T01:34:13.365Z,18.0021
2023-05-15T01:35:14.962Z,17.9719
2023-05-15T01:36:16.664Z,17.9594
2023-05-15T01:37:18.240Z,17.8998
2023-05-15T01:38:19.946Z,17.7833
2023-05-15T01:39:21.610Z,17.8914
2023-05-15T01:40:23.203Z,17.9536
2023-05-15T01:41:24.851Z,17.9450
2023-05-15T01:42:26.519Z,17.9382
2023-05-15T01:43:28.249Z,17.9573
2023-05-15T01:44:29.926Z,17.9142
2023-05-15T01:45:31.484Z,17.9216
2023-05-15T01:46:33.217Z,17.9512
2023-05-15T01:47:34.806Z,17.9592
2023-05-15T01:48:36.530Z,17.9709
2023-05-15T01:49:38.102Z,17.9088
2023-05-15T01:50:39.746Z,17.9362
2023-05-15T01:51:41.417Z,17.9487
2023-05-15T01:52:43.047Z,17.9649
2023-05-15T01:53:44.692Z,17.9666
2023-05-15T01:54:46.376Z,17.9596
2023-05-15T01:55:47.937Z,17.9493
2023-05-15T01:56:50.369Z,17.9635
2023-05-15T01:57:51.300Z,17.9614
2023-05-15T01:58:52.938Z,17.9497
2023-05-15T01:59:54.550Z,17.9536
2023-05-15T02:00:56.248Z,17.9571
2023-05-15T02:01:57.953Z,17.9544
2023-05-15T02:02:59.583Z,17.9748
2023-05-15T02:04:01.977Z,17.9805
2023-05-15T02:05:02.873Z,17.9620
2023-05-15T02:06:04.386Z,17.9596
2023-05-15T02:07:06.121Z,17.9575
2023-05-15T02:08:07.801Z,17.9218
2023-05-15T02:09:09.417Z,17.9384
2023-05-15T02:10:11.015Z,17.9641
2023-05-15T02:11:12.774Z,17.9027
2023-05-15T02:12:14.252Z,17.8752
2023-05-15T02:13:15.953Z,17.9019
2023-05-15T02:14:17.606Z,17.9129
2023-05-15T02:15:19.284Z,17.9670
2023-05-15T02:16:20.873Z,17.9620
2023-05-15T02:17:22.526Z,17.9561
2023-05-15T02:18:24.136Z,17.9526
2023-05-15T02:19:25.820Z,17.9608
2023-05-15T02:20:27.459Z,17.9481
2023-05-15T02:21:29.121Z,17.9080
2023-05-15T02:22:30.698Z,17.9269
2023-05-15T02:23:32.428Z,17.9622
2023-05-15T02:24:34.016Z,17.9288
2023-05-15T02:25:35.677Z,17.9382
2023-05-15T02:26:37.265Z,17.9514
2023-05-15T02:27:39.000Z,17.9612
2023-05-15T02:28:40.601Z,17.9612
2023-05-15T02:29:42.278Z,17.9682
2023-05-15T02:30:43.916Z,17.9639
2023-05-15T02:31:45.592Z,17.9711
2023-05-15T02:32:47.281Z,17.9433
2023-05-15T02:33:48.979Z,17.9360
2023-05-15T02:34:50.569Z,17.8973
2023-05-15T02:35:52.140Z,17.9236
2023-05-15T02:36:53.751Z,17.9370
2023-05-15T02:37:55.512Z,17.9298
2023-05-15T02:38:57.072Z,17.9440
2023-05-15T02:39:58.763Z,17.9592
2023-05-15T02:41:00.373Z,17.9534
2023-05-15T02:42:02.095Z,17.9429
2023-05-15T02:43:03.629Z,17.9544
2023-05-15T02:44:05.351Z,17.9460
2023-05-15T02:45:06.961Z,17.9183
2023-05-15T02:46:08.693Z,17.9546
2023-05-15T02:47:10.258Z,17.9158
2023-05-15T02:48:11.915Z,17.8990
2023-05-15T02:49:13.509Z,17.9017
2023-05-15T02:50:15.244Z,17.7996
2023-05-15T02:51:16.797Z,17.8550
2023-05-15T02:52:18.468Z,17.6274
2023-05-15T02:53:20.161Z,17.1803
2023-05-15T02:54:21.744Z,17.5108
2023-05-15T02:55:23.685Z,17.8195
2023-05-15T02:56:25.019Z,18.1334
2023-05-15T02:57:26.717Z,18.4686
2023-05-15T02:58:28.321Z,18.7019
2023-05-15T02:59:30.029Z,18.8447
2023-05-15T03:00:31.647Z,18.9104
2023-05-15T03:01:33.419Z,18.9663
2023-05-15T03:02:34.991Z,19.0265
2023-05-15T03:03:36.592Z,19.0959
2023-05-15T03:04:38.215Z,19.1618
2023-05-15T03:05:39.895Z,19.2450
2023-05-15T03:06:41.491Z,19.2845
2023-05-15T03:07:43.187Z,19.3023
2023-05-15T03:08:44.846Z,19.3130
2023-05-15T03:09:46.412Z,19.3329
2023-05-15T03:10:48.121Z,19.3619
2023-05-15T03:11:49.880Z,19.2678
2023-05-15T03:12:51.409Z,19.3112
2023-05-15T03:13:53.029Z,19.4354
2023-05-15T03:14:55.572Z,19.4564
2023-05-15T03:15:56.369Z,19.4576
2023-05-15T03:16:58.054Z,19.4689
2023-05-15T03:17:59.618Z,19.4893
2023-05-15T03:19:01.343Z,19.4001
2023-05-15T03:20:02.942Z,19.4102
2023-05-15T03:21:04.605Z,19.4685
2023-05-15T03:22:06.264Z,19.4940
2023-05-15T03:23:07.882Z,19.4077
2023-05-15T03:24:09.519Z,19.4281
2023-05-15T03:25:11.178Z,19.4451
2023-05-15T03:26:13.489Z,19.2935
2023-05-15T03:27:14.477Z,19.4743
2023-05-15T03:28:16.066Z,19.5749
2023-05-15T03:29:17.678Z,19.6000
2023-05-15T03:30:19.299Z,19.6092
2023-05-15T03:31:20.998Z,19.5805
2023-05-15T03:32:22.610Z,19.5164
2023-05-15T03:33:24.250Z,19.4322
2023-05-15T03:34:25.865Z,19.4463
2023-05-15T03:35:27.523Z,19.4482
2023-05-15T03:36:29.206Z,19.5515
2023-05-15T03:37:30.824Z,19.5579
2023-05-15T03:38:32.458Z,19.5554
2023-05-15T03:39:34.133Z,19.5636
2023-05-15T03:40:35.765Z,19.4911
2023-05-15T03:41:37.443Z,19.4552
2023-05-15T03:42:39.095Z,19.4619
2023-05-15T03:43:40.710Z,19.4543
2023-05-15T03:44:42.358Z,19.3582
2023-05-15T03:45:43.967Z,19.1892
2023-05-15T03:46:46.513Z,19.2611
2023-05-15T03:47:47.329Z,19.2824
2023-05-15T03:48:48.920Z,19.3288
2023-05-15T03:49:50.556Z,19.4104
2023-05-15T03:50:52.203Z,19.4515
2023-05-15T03:51:53.881Z,19.4412
2023-05-15T03:52:55.500Z,19.3880
2023-05-15T03:53:57.159Z,19.4636
2023-05-15T03:55:01.414Z,19.4591
2023-05-15T03:56:00.482Z,19.4420
2023-05-15T03:57:02.116Z,19.4340
2023-05-15T03:58:03.737Z,19.5018
2023-05-15T03:59:05.395Z,19.5205
2023-05-15T04:00:07.130Z,19.5418
2023-05-15T04:01:08.640Z,19.5443
2023-05-15T04:02:10.469Z,19.5490
2023-05-15T04:03:12.130Z,19.4081
2023-05-15T04:04:13.613Z,19.5162
2023-05-15T04:05:15.309Z,19.6217
2023-05-15T04:06:16.936Z,19.6458
2023-05-15T04:07:18.562Z,19.5607
2023-05-15T04:08:20.177Z,19.6070
2023-05-15T04:09:21.859Z,19.5792
2023-05-15T04:10:23.583Z,19.6283
2023-05-15T04:11:25.099Z,19.5714
2023-05-15T04:12:26.823Z,19.6454
2023-05-15T04:13:28.358Z,19.7010
2023-05-15T04:14:30.031Z,19.7600
2023-05-15T04:15:31.708Z,19.7830
2023-05-15T04:16:33.372Z,19.7284
2023-05-15T04:17:35.060Z,19.5094
2023-05-15T04:18:36.662Z,19.0593
2023-05-15T04:19:38.886Z,19.1158
2023-05-15T04:20:39.881Z,19.3083
2023-05-15T04:21:41.556Z,19.4587
2023-05-15T04:22:43.235Z,19.4790
2023-05-15T04:23:47.431Z,19.4398
2023-05-15T04:24:46.511Z,19.1924
2023-05-15T04:25:48.123Z,19.2662
2023-05-15T04:26:50.856Z,19.3627
2023-05-15T04:27:51.448Z,19.5614
2023-05-15T04:29:03.536Z,19.6904
2023-05-15T04:29:54.726Z,19.7150
2023-05-15T04:30:56.375Z,19.6632
2023-05-15T04:31:58.088Z,19.6261
2023-05-15T04:33:00.505Z,19.6924
2023-05-15T04:34:01.311Z,19.7162
2023-05-15T04:35:02.922Z,19.8196
2023-05-15T04:36:04.645Z,19.9091
2023-05-15T04:37:06.216Z,19.9097
2023-05-15T04:38:07.932Z,19.4987
2023-05-15T04:39:09.536Z,19.0378
2023-05-15T04:40:11.196Z,19.1267
2023-05-15T04:41:12.788Z,19.4580
2023-05-15T04:42:14.485Z,19.6152
2023-05-15T04:43:16.117Z,19.7066
2023-05-15T04:44:17.761Z,19.7684
2023-05-15T04:45:19.410Z,19.6312
2023-05-15T04:46:21.080Z,19.6875
2023-05-15T04:47:22.750Z,19.6417
2023-05-15T04:48:24.375Z,19.6632
2023-05-15T04:49:25.982Z,19.8378
2023-05-15T04:50:27.611Z,19.9293
2023-05-15T04:51:29.273Z,19.8917
2023-05-15T04:52:30.927Z,19.8428
2023-05-15T04:53:32.560Z,20.2758
2023-05-15T04:54:34.251Z,20.7766
2023-05-15T04:55:36.374Z,21.1110
2023-05-15T04:56:37.477Z,21.2609
2023-05-15T04:57:39.137Z,21.0726
2023-05-15T04:58:40.841Z,21.2648
2023-05-15T04:59:42.442Z,21.5606
2023-05-15T05:00:44.085Z,22.0518
2023-05-15T05:01:46.438Z,22.4357
2023-05-15T05:02:47.402Z,22.4597
2023-05-15T05:03:49.435Z,22.4905
2023-05-15T05:04:50.703Z,22.9196
2023-05-15T05:05:52.314Z,23.2516
2023-05-15T05:06:54.009Z,23.2857
2023-05-15T05:07:55.582Z,23.2374
2023-05-15T05:08:57.422Z,23.1622
2023-05-15T05:09:58.884Z,23.4884
2023-05-15T05:11:00.533Z,23.8415
2023-05-15T05:12:02.140Z,23.8464
2023-05-15T05:13:03.840Z,23.6911
2023-05-15T05:14:05.470Z,23.8170
2023-05-15T05:15:07.100Z,24.0225
2023-05-15T05:16:08.761Z,24.2889
2023-05-15T05:17:10.430Z,24.4380
2023-05-15T05:18:12.014Z,24.0280
2023-05-15T05:19:13.856Z,23.8996
2023-05-15T05:20:15.877Z,24.0582
2023-05-15T05:21:16.972Z,24.3815
2023-05-15T05:22:18.578Z,24.6976
2023-05-15T05:23:20.261Z,24.7424
2023-05-15T05:24:21.894Z,24.3729
2023-05-15T05:25:23.660Z,24.4483
2023-05-15T05:26:25.146Z,24.4522
2023-05-15T05:27:27.382Z,24.6933
2023-05-15T05:28:28.440Z,24.9513
2023-05-15T05:29:30.410Z,24.8186
2023-05-15T05:30:31.715Z,24.5483
2023-05-15T05:31:33.463Z,24.4820
2023-05-15T05:32:35.094Z,24.8069
2023-05-15T05:33:36.914Z,25.0039
2023-05-15T05:34:39.420Z,25.0419
2023-05-15T05:35:40.163Z,24.7414
2023-05-15T05:36:41.721Z,24.8952
2023-05-15T05:37:43.379Z,24.8422
2023-05-15T05:38:45.030Z,24.9203
2023-05-15T05:39:46.808Z,25.0889
2023-05-15T05:40:49.184Z,24.9604
2023-05-15T05:41:50.818Z,24.6654
2023-05-15T05:42:51.513Z,24.6052
2023-05-15T05:43:53.186Z,24.8443
2023-05-15T05:44:55.503Z,25.0842
2023-05-15T05:45:56.509Z,25.1645
2023-05-15T05:46:58.192Z,24.9279
2023-05-15T05:47:59.921Z,25.1803
2023-05-15T05:49:01.476Z,25.0097
2023-05-15T05:50:03.229Z,24.9986
2023-05-15T05:51:04.748Z,25.3348
2023-05-15T05:52:06.402Z,25.0246
2023-05-15T05:53:08.090Z,25.1580
2023-05-15T05:54:09.692Z,24.9517
2023-05-15T05:55:11.327Z,25.0700
2023-05-15T05:56:12.958Z,25.2440
2023-05-15T05:57:14.599Z,25.3180
2023-05-15T05:58:24.901Z,24.8895
2023-05-15T05:59:17.900Z,24.8749
2023-05-15T06:00:19.601Z,24.9291
2023-05-15T06:01:21.173Z,25.1992
2023-05-15T06:02:23.624Z,25.4326
2023-05-15T06:03:25.012Z,25.0345
2023-05-15T06:04:26.170Z,25.2062
2023-05-15T06:05:27.771Z,25.0470
2023-05-15T06:06:29.412Z,25.0331
2023-05-15T06:07:31.084Z,25.3270
2023-05-15T06:08:32.754Z,25.3317
2023-05-15T06:09:34.365Z,24.7712
2023-05-15T06:10:36.009Z,24.7299
2023-05-15T06:11:37.662Z,24.6734
2023-05-15T06:12:39.271Z,24.6917
2023-05-15T06:13:40.927Z,24.8722
2023-05-15T06:14:42.559Z,25.0158
2023-05-15T06:15:44.229Z,24.9558
2023-05-15T06:16:45.872Z,25.0836
2023-05-15T06:17:47.546Z,24.8634
2023-05-15T06:18:49.270Z,25.0320
2023-05-15T06:19:50.808Z,25.2679
2023-05-15T06:20:53.065Z,25.0503
2023-05-15T06:21:54.022Z,25.1136
2023-05-15T06:22:55.743Z,25.1578
2023-05-15T06:23:57.351Z,25.0729
2023-05-15T06:24:58.990Z,25.2157
2023-05-15T06:26:00.659Z,25.3971
2023-05-15T06:27:02.318Z,25.1514
2023-05-15T06:28:03.942Z,25.2163
2023-05-15T06:29:05.622Z,25.1017
2023-05-15T06:30:07.214Z,25.0772
2023-05-15T06:31:08.931Z,25.3157
2023-05-15T06:32:10.507Z,25.4957
2023-05-15T06:33:13.227Z,25.0781
2023-05-15T06:34:13.730Z,25.2627
2023-05-15T06:35:15.488Z,25.0694
2023-05-15T06:36:17.125Z,25.0246
2023-05-15T06:37:18.722Z,25.2935
2023-05-15T06:38:20.369Z,25.1894
2023-05-15T06:39:22.036Z,24.9207
2023-05-15T06:40:23.770Z,25.0937
2023-05-15T06:41:25.291Z,24.9936
2023-05-15T06:42:26.956Z,25.1101
2023-05-15T06:43:28.627Z,25.3773
2023-05-15T06:44:30.220Z,25.2317
2023-05-15T06:45:31.885Z,24.9780
2023-05-15T06:46:33.567Z,25.3496
2023-05-15T06:47:35.247Z,25.2814
2023-05-15T06:48:36.782Z,25.3358
2023-05-15T06:49:38.404Z,25.4788
2023-05-15T06:50:40.178Z,25.1910
2023-05-15T06:51:41.739Z,24.9973
2023-05-15T06:52:43.393Z,25.3484
2023-05-15T06:53:45.830Z,25.1372
2023-05-15T06:54:46.663Z,25.3252
2023-05-15T06:55:48.332Z,25.4696
2023-05-15T06:56:49.988Z,25.1189
2023-05-15T06:57:51.572Z,24.9390
2023-05-15T06:58:53.216Z,25.1875
2023-05-15T06:59:54.835Z,25.2993
2023-05-15T07:00:56.970Z,25.4511
2023-05-15T07:01:59.070Z,25.4821
2023-05-15T07:02:59.857Z,25.0571
2023-05-15T07:04:01.423Z,25.2820
2023-05-15T07:05:04.228Z,25.3400
2023-05-15T07:06:04.837Z,25.2931
2023-05-15T07:07:06.384Z,25.4743
2023-05-15T07:08:08.090Z,25.4416
2023-05-15T07:09:09.668Z,25.1793
2023-05-15T07:10:11.321Z,25.4772
2023-05-15T07:11:13.008Z,25.4973
2023-05-15T07:12:14.658Z,25.4905
2023-05-15T07:13:16.297Z,25.6639
2023-05-15T07:14:17.877Z,25.4236
2023-05-15T07:15:19.521Z,25.3161
2023-05-15T07:16:21.152Z,25.1195
2023-05-15T07:17:22.862Z,24.9398
2023-05-15T07:18:24.590Z,25.0491
2023-05-15T07:19:26.177Z,25.4998
2023-05-15T07:20:30.922Z,25.3872
2023-05-15T07:21:29.603Z,25.2697
2023-05-15T07:22:32.750Z,25.4164
2023-05-15T07:23:32.696Z,25.3424
2023-05-15T07:24:34.280Z,25.5482
2023-05-15T07:25:35.982Z,25.7684
2023-05-15T07:26:43.876Z,25.3545
2023-05-15T07:27:39.261Z,25.1360
2023-05-15T07:28:40.949Z,25.2853
2023-05-15T07:29:42.522Z,25.3923
2023-05-15T07:30:44.257Z,25.6281
2023-05-15T07:31:45.941Z,25.7200
2023-05-15T07:32:47.426Z,25.3708
2023-05-15T07:33:49.136Z,25.5404
2023-05-15T07:34:50.738Z,25.7773
2023-05-15T07:35:52.456Z,25.9176
2023-05-15T07:36:55.093Z,26.0127
2023-05-15T07:37:55.665Z,25.7697
2023-05-15T07:38:57.450Z,25.3389
2023-05-15T07:39:59.575Z,25.4418
2023-05-15T07:41:00.734Z,25.4708
2023-05-15T07:42:02.283Z,25.6033
2023-05-15T07:43:04.562Z,25.8368
2023-05-15T07:44:05.535Z,25.5645
2023-05-15T07:45:07.213Z,25.6865
2023-05-15T07:46:08.875Z,25.8942
2023-05-15T07:47:10.538Z,25.7600
2023-05-15T07:48:12.192Z,25.9059
2023-05-15T07:49:13.744Z,25.9441
2023-05-15T07:50:15.413Z,25.5618
2023-05-15T07:51:17.050Z,25.2847
2023-05-15T07:52:18.683Z,25.4603
2023-05-15T07:53:20.303Z,25.5343
2023-05-15T07:54:22.453Z,25.8410
2023-05-15T07:55:23.646Z,25.8937
2023-05-15T07:56:25.201Z,25.5497
2023-05-15T07:57:26.880Z,25.8894
2023-05-15T07:58:28.530Z,25.8742
2023-05-15T07:59:30.184Z,25.9646
2023-05-15T08:00:31.776Z,26.0963
2023-05-15T08:01:33.440Z,25.7547
2023-05-15T08:02:35.165Z,25.4852
2023-05-15T08:03:36.769Z,25.8093
2023-05-15T08:04:38.456Z,25.6581
2023-05-15T08:05:40.014Z,25.8603
2023-05-15T08:06:42.658Z,26.0170
2023-05-15T08:07:44.126Z,25.6937
2023-05-15T08:08:44.935Z,25.5984
2023-05-15T08:09:46.572Z,25.9619
2023-05-15T08:10:48.205Z,25.9301
2023-05-15T08:11:49.896Z,25.9667
2023-05-15T08:12:51.550Z,26.0351
2023-05-15T08:13:53.206Z,25.6286
2023-05-15T08:14:54.775Z,25.5965
2023-05-15T08:15:56.488Z,25.7465
2023-05-15T08:16:58.051Z,25.6585
2023-05-15T08:18:00.055Z,25.9332
2023-05-15T08:19:02.069Z,25.8364
2023-05-15T08:20:03.053Z,25.4722
2023-05-15T08:21:04.836Z,25.8446
2023-05-15T08:22:06.335Z,25.7773
2023-05-15T08:23:07.974Z,25.8662
2023-05-15T08:24:09.858Z,26.1137
2023-05-15T08:25:11.400Z,25.7417
2023-05-15T08:26:13.031Z,25.5595
2023-05-15T08:27:14.816Z,26.0051
2023-05-15T08:28:16.393Z,25.9821
2023-05-15T08:29:18.029Z,26.0784
2023-05-15T08:30:19.628Z,26.2177
2023-05-15T08:31:21.272Z,25.9802
2023-05-15T08:32:23.002Z,25.7454
2023-05-15T08:33:24.577Z,25.8656
2023-05-15T08:34:26.161Z,25.7664
2023-05-15T08:35:28.085Z,25.9180
2023-05-15T08:36:29.477Z,25.9983
2023-05-15T08:37:31.206Z,26.0420
2023-05-15T08:38:32.828Z,25.8301
2023-05-15T08:39:34.446Z,26.2577
2023-05-15T08:40:39.944Z,26.2651
2023-05-15T08:41:40.947Z,26.2846
2023-05-15T08:42:39.278Z,26.2793
2023-05-15T08:43:41.129Z,25.7518
2023-05-15T08:44:42.632Z,26.0086
2023-05-15T08:45:44.297Z,26.1402
2023-05-15T08:46:45.985Z,26.0303
2023-05-15T08:47:47.705Z,26.1230
2023-05-15T08:48:50.262Z,26.1901
2023-05-15T08:49:50.831Z,25.6740
2023-05-15T08:50:52.471Z,25.0173
2023-05-15T08:51:54.170Z,25.0138
2023-05-15T08:52:55.757Z,24.9137
2023-05-15T08:53:57.487Z,24.5389
2023-05-15T08:54:59.041Z,24.3819
2023-05-15T08:56:00.772Z,23.9918
2023-05-15T08:57:02.397Z,23.9220
2023-05-15T08:58:04.076Z,23.9793
2023-05-15T08:59:05.682Z,23.6574
2023-05-15T09:00:08.910Z,23.6010
2023-05-15T09:01:09.209Z,23.5833
2023-05-15T09:02:11.589Z,23.2456
2023-05-15T09:03:12.210Z,22.9730
2023-05-15T09:04:14.680Z,22.9962
2023-05-15T09:05:15.440Z,22.9771
2023-05-15T09:06:17.157Z,22.8208
2023-05-15T09:07:18.687Z,22.9527
2023-05-15T09:08:20.414Z,22.6567
2023-05-15T09:09:22.053Z,22.6526
2023-05-15T09:10:23.705Z,22.4944
2023-05-15T09:11:25.317Z,22.3408
2023-05-15T09:12:27.004Z,22.2171
2023-05-15T09:13:28.546Z,22.4843
2023-05-15T09:14:30.273Z,22.2886
2023-05-15T09:15:31.823Z,22.2298
2023-05-15T09:16:33.520Z,22.0684
2023-05-15T09:17:35.144Z,21.9860
2023-05-15T09:18:36.797Z,22.0088
2023-05-15T09:19:38.471Z,22.1608
2023-05-15T09:20:40.045Z,22.0813
2023-05-15T09:21:41.717Z,22.1805
2023-05-15T09:22:43.344Z,22.0025
2023-05-15T09:23:45.054Z,21.6662
2023-05-15T09:24:46.662Z,21.7837
2023-05-15T09:25:48.334Z,21.9747
2023-05-15T09:26:49.929Z,21.7981
2023-05-15T09:27:51.576Z,21.9345
2023-05-15T09:28:53.246Z,21.6296
2023-05-15T09:29:54.923Z,21.4885
2023-05-15T09:30:56.514Z,21.6003
2023-05-15T09:31:58.221Z,21.8389
2023-05-15T09:33:00.650Z,21.7336
2023-05-15T09:34:01.433Z,21.8328
2023-05-15T09:35:03.219Z,21.7710
2023-05-15T09:36:04.839Z,21.5725
2023-05-15T09:37:06.410Z,21.7270
2023-05-15T09:38:08.030Z,22.0022
2023-05-15T09:39:09.671Z,22.0189
2023-05-15T09:40:11.429Z,22.1045
2023-05-15T09:41:12.964Z,21.9817
2023-05-15T09:42:14.669Z,21.7868
2023-05-15T09:43:16.259Z,21.9384
2023-05-15T09:44:20.627Z,22.1680
2023-05-15T09:45:19.597Z,22.1559
2023-05-15T09:46:21.350Z,22.2617
2023-05-15T09:47:23.008Z,22.0390
2023-05-15T09:48:24.557Z,21.8297
2023-05-15T09:49:26.201Z,21.9858
2023-05-15T09:50:27.868Z,22.1612
2023-05-15T09:51:29.464Z,22.2120
2023-05-15T09:52:31.108Z,22.1801
2023-05-15T09:53:32.789Z,22.0209
2023-05-15T09:54:34.415Z,21.7964
2023-05-15T09:55:36.105Z,21.9193
2023-05-15T09:56:37.654Z,22.1317
2023-05-15T09:57:39.365Z,22.1904
2023-05-15T09:58:41.004Z,22.2498
2023-05-15T09:59:42.622Z,22.1489
2023-05-15T10:00:47.912Z,21.9396
2023-05-15T10:01:45.951Z,22.1337
2023-05-15T10:02:47.623Z,22.2989
2023-05-15T10:03:49.236Z,22.3940
2023-05-15T10:04:50.832Z,22.4893
2023-05-15T10:05:52.602Z,22.4804
2023-05-15T10:06:54.184Z,22.2459
2023-05-15T10:07:56.690Z,22.4061
2023-05-15T10:08:57.434Z,22.5907
2023-05-15T10:09:59.139Z,22.5573
2023-05-15T10:11:00.766Z,22.4854
2023-05-15T10:12:02.400Z,22.3141
2023-05-15T10:13:03.968Z,22.1054
2023-05-15T10:14:05.648Z,22.2305
2023-05-15T10:15:07.242Z,22.5039
2023-05-15T10:16:09.034Z,22.4172
2023-05-15T10:17:10.550Z,22.4108
2023-05-15T10:18:12.316Z,22.3716
2023-05-15T10:19:13.849Z,22.3173
2023-05-15T10:20:15.551Z,22.2976
2023-05-15T10:21:17.687Z,22.5371
2023-05-15T10:22:18.785Z,22.5733
2023-05-15T10:23:20.434Z,22.5217
2023-05-15T10:24:22.068Z,22.5184
2023-05-15T10:25:23.752Z,22.4161
2023-05-15T10:26:25.373Z,22.5016
2023-05-15T10:27:26.951Z,22.8216
2023-05-15T10:28:28.638Z,22.8600
2023-05-15T10:29:30.233Z,22.5743
2023-05-15T10:30:31.894Z,22.8459
2023-05-15T10:31:33.572Z,22.7680
2023-05-15T10:32:35.248Z,22.6737
2023-05-15T10:33:36.828Z,22.9266
2023-05-15T10:34:38.504Z,22.8835
2023-05-15T10:35:40.113Z,22.8087
2023-05-15T10:36:43.090Z,22.6622
2023-05-15T10:37:43.378Z,22.4034
2023-05-15T10:38:45.036Z,22.4400
2023-05-15T10:39:46.658Z,22.6934
2023-05-15T10:40:48.355Z,23.0139
2023-05-15T10:41:50.192Z,23.7994
2023-05-15T10:42:51.639Z,24.6857
2023-05-15T10:43:53.316Z,25.0739
2023-05-15T10:44:54.910Z,25.1276
2023-05-15T10:45:56.643Z,25.5901
2023-05-15T10:46:58.901Z,25.6768
2023-05-15T10:47:59.986Z,24.8468
2023-05-15T10:49:01.661Z,24.6278
2023-05-15T10:50:03.080Z,24.1106
2023-05-15T10:51:04.811Z,24.0939
2023-05-15T10:52:06.489Z,24.3129
2023-05-15T10:53:08.111Z,24.3131
2023-05-15T10:54:09.678Z,23.9578
2023-05-15T10:55:11.345Z,24.0313
2023-05-15T10:56:13.032Z,23.8598
2023-05-15T10:57:14.695Z,24.0044
2023-05-15T10:58:16.293Z,24.0038
2023-05-15T10:59:17.949Z,24.0225
2023-05-15T11:00:19.554Z,24.1239
2023-05-15T11:01:21.276Z,23.9115
2023-05-15T11:02:22.834Z,23.6155
2023-05-15T11:03:25.182Z,23.9569
2023-05-15T11:04:26.138Z,23.9504
2023-05-15T11:05:27.873Z,23.8226
2023-05-15T11:06:29.496Z,23.6260
2023-05-15T11:07:31.005Z,23.2828
2023-05-15T11:08:32.775Z,23.1248
2023-05-15T11:09:34.405Z,23.4444
2023-05-15T11:10:35.996Z,23.4097
2023-05-15T11:11:37.696Z,23.4865
2023-05-15T11:12:39.336Z,23.5056
2023-05-15T11:13:40.971Z,23.3432
2023-05-15T11:14:42.608Z,23.3625
2023-05-15T11:15:44.264Z,23.5346
2023-05-15T11:16:45.895Z,23.4434
2023-05-15T11:17:47.600Z,23.3849
2023-05-15T11:18:49.238Z,23.4085
2023-05-15T11:19:50.794Z,23.3598
2023-05-15T11:20:52.457Z,23.5747
2023-05-15T11:21:54.077Z,23.7601
2023-05-15T11:22:56.297Z,23.6630
2023-05-15T11:23:57.412Z,23.5837
2023-05-15T11:24:59.034Z,23.1281
2023-05-15T11:26:00.657Z,23.0831
2023-05-15T11:27:02.304Z,23.4611
2023-05-15T11:28:04.062Z,23.2575
2023-05-15T11:29:05.637Z,23.2943
2023-05-15T11:30:07.194Z,23.0546
2023-05-15T11:31:08.812Z,22.8691
2023-05-15T11:32:10.423Z,22.7565
2023-05-15T11:33:12.148Z,23.1184
2023-05-15T11:34:13.832Z,22.9753
2023-05-15T11:35:15.330Z,23.0098
2023-05-15T11:36:16.960Z,22.9065
2023-05-15T11:37:18.597Z,22.8921
2023-05-15T11:38:21.216Z,22.8434
2023-05-15T11:39:22.099Z,23.0426
2023-05-15T11:40:23.836Z,23.2692
2023-05-15T11:41:26.141Z,23.4582
2023-05-15T11:42:26.814Z,23.5488
2023-05-15T11:43:28.555Z,23.5098
2023-05-15T11:44:30.149Z,23.2705
2023-05-15T11:45:31.763Z,23.4559
2023-05-15T11:46:33.466Z,23.4586
2023-05-15T11:47:35.061Z,23.4722
2023-05-15T11:48:36.772Z,23.2450
2023-05-15T11:49:39.161Z,23.1788
2023-05-15T11:50:40.088Z,23.4101
2023-05-15T11:51:42.647Z,23.5958
2023-05-15T11:52:43.250Z,23.8641
2023-05-15T11:53:44.948Z,23.9352
2023-05-15T11:54:46.595Z,24.0370
2023-05-15T11:55:48.209Z,23.8540
2023-05-15T11:56:49.894Z,23.6260
2023-05-15T11:57:51.511Z,23.4342
2023-05-15T11:58:53.134Z,23.7390
2023-05-15T11:59:54.778Z,23.7782
2023-05-15T12:00:56.449Z,23.9882
2023-05-15T12:01:58.072Z,23.9571
2023-05-15T12:02:59.778Z,24.1623
2023-05-15T12:04:01.883Z,24.3942
2023-05-15T12:05:03.052Z,24.1083
2023-05-15T12:06:04.617Z,23.9483
2023-05-15T12:07:06.326Z,23.9002
2023-05-15T12:08:08.086Z,23.7836
2023-05-15T12:09:09.677Z,23.4978
2023-05-15T12:10:11.335Z,23.8452
2023-05-15T12:11:12.870Z,23.7727
2023-05-15T12:12:14.600Z,23.8331
2023-05-15T12:13:16.197Z,23.6956
2023-05-15T12:14:18.143Z,23.5870
2023-05-15T12:15:19.410Z,23.5728
2023-05-15T12:16:22.280Z,23.8824
2023-05-15T12:17:22.880Z,23.5788
2023-05-15T12:18:24.545Z,23.4802
2023-05-15T12:19:26.230Z,23.3212
2023-05-15T12:20:27.928Z,23.3035
2023-05-15T12:21:29.502Z,23.3130
2023-05-15T12:22:31.331Z,23.5825
2023-05-15T12:23:32.783Z,23.3208
2023-05-15T12:24:34.479Z,23.2744
2023-05-15T12:25:36.089Z,23.1234